createdAt,value
2019-03-18T06:30:55.071Z,36.30
2019-03-18T06:32:54.971Z,37.00
2019-03-18T06:33:54.965Z,36.90
2019-03-18T06:34:54.947Z,36.80
2019-03-18T06:35:54.910Z,37.40
2019-03-18T06:36:54.932Z,37.81
2019-03-18T06:37:55.012Z,37.81
2019-03-18T06:38:54.937Z,37.89
2019-03-18T06:39:54.900Z,37.48
2019-03-18T06:40:54.882Z,38.69
2019-03-18T06:41:54.877Z,38.29
2019-03-18T06:42:54.828Z,38.49
2019-03-18T06:43:54.834Z,38.89
2019-03-18T06:44:54.900Z,38.49
2019-03-18T06:45:54.813Z,38.49
2019-03-18T06:46:54.821Z,39.17
2019-03-18T06:48:04.097Z,39.17
2019-03-18T06:49:17.019Z,38.97
2019-03-18T06:50:17.072Z,38.77
2019-03-18T06:51:16.964Z,38.97
2019-03-18T06:52:16.993Z,39.58
2019-03-18T06:53:16.942Z,38.87
2019-03-18T06:54:16.930Z,39.28
2019-03-18T06:55:16.936Z,38.75
2019-03-18T06:56:16.961Z,38.95
2019-03-18T06:57:16.906Z,38.75
2019-03-18T06:58:16.889Z,38.45
2019-03-18T06:59:16.879Z,37.95
2019-03-18T07:00:16.868Z,38.36
2019-03-18T07:01:16.865Z,37.45
2019-03-18T07:02:16.866Z,37.85
2019-03-18T07:03:16.847Z,37.75
2019-03-18T07:04:16.843Z,37.55
2019-03-18T07:05:16.853Z,37.65
2019-03-18T07:06:16.817Z,37.65
2019-03-18T07:07:16.830Z,37.35
2019-03-18T07:08:16.776Z,37.85
2019-03-18T07:09:16.798Z,37.05
2019-03-18T07:10:16.767Z,37.55
2019-03-18T07:11:16.770Z,37.65
2019-03-18T07:12:16.733Z,37.63
2019-03-18T07:13:16.728Z,36.85
2019-03-18T07:14:16.712Z,36.85
2019-03-18T07:15:16.826Z,36.85
2019-03-18T07:16:16.690Z,37.65
2019-03-18T07:17:16.696Z,36.54
2019-03-18T07:18:18.595Z,36.54
2019-03-18T07:19:16.671Z,36.95
2019-03-18T07:20:16.644Z,36.93
2019-03-18T07:21:16.660Z,36.83
2019-03-18T07:22:16.630Z,37.13
2019-03-18T07:23:16.614Z,37.03
2019-03-18T07:24:16.759Z,36.83
2019-03-18T07:25:16.613Z,36.83
2019-03-18T07:26:16.590Z,36.63
2019-03-18T07:27:16.595Z,36.61
2019-03-18T07:28:18.142Z,36.43
2019-03-18T07:29:16.564Z,36.63
2019-03-18T07:30:16.538Z,36.73
2019-03-18T07:31:16.595Z,36.63
2019-03-18T07:32:16.539Z,37.03
2019-03-18T07:33:16.563Z,37.23
2019-03-18T07:34:16.501Z,37.23
2019-03-18T07:35:16.498Z,37.23
2019-03-18T07:36:16.471Z,37.13
2019-03-18T07:37:16.470Z,37.03
2019-03-18T07:38:16.446Z,37.03
2019-03-18T07:39:16.455Z,37.21
2019-03-18T07:40:16.438Z,37.31
2019-03-18T07:41:16.430Z,36.71
2019-03-18T07:42:16.399Z,36.61
2019-03-18T07:43:16.396Z,36.61
2019-03-18T07:44:16.402Z,36.81
2019-03-18T07:45:16.476Z,36.51
2019-03-18T07:46:16.363Z,36.39
2019-03-18T07:47:16.386Z,36.51
2019-03-18T07:48:16.382Z,36.11
2019-03-18T07:49:16.345Z,36.21
2019-03-18T07:50:16.338Z,36.31
2019-03-18T07:51:16.329Z,36.09
2019-03-18T07:52:16.291Z,36.41
2019-03-18T07:53:18.294Z,36.41
2019-03-18T07:54:16.279Z,36.29
2019-03-18T07:55:16.258Z,36.39
2019-03-18T07:56:16.328Z,36.39
2019-03-18T07:57:16.277Z,36.39
2019-03-18T07:58:17.444Z,36.19
2019-03-18T07:59:16.258Z,36.09
2019-03-18T08:00:16.267Z,36.29
2019-03-18T08:02:16.208Z,36.21
2019-03-18T08:03:16.220Z,36.19
2019-03-18T08:04:16.438Z,36.21
2019-03-18T08:05:16.244Z,36.61
2019-03-18T08:06:17.228Z,36.49
2019-03-18T08:07:16.291Z,36.49
2019-03-18T08:08:16.261Z,36.59
2019-03-18T08:09:16.141Z,36.59
2019-03-18T08:10:16.162Z,36.29
2019-03-18T08:11:16.116Z,36.21
2019-03-18T08:12:16.187Z,36.39
2019-03-18T08:13:16.104Z,36.19
2019-03-18T08:14:17.341Z,36.19
2019-03-18T08:15:17.550Z,35.89
2019-03-18T08:16:17.354Z,35.89
2019-03-18T08:17:16.176Z,35.99
2019-03-18T08:18:16.062Z,35.79
2019-03-18T08:19:16.197Z,35.99
2019-03-18T08:20:15.997Z,36.09
2019-03-18T08:21:15.980Z,36.19
2019-03-18T08:22:15.996Z,36.19
2019-03-18T08:23:15.972Z,36.19
2019-03-18T08:24:16.009Z,35.88
2019-03-18T08:25:15.948Z,35.79
2019-03-18T08:26:15.927Z,36.09
2019-03-18T08:27:15.909Z,35.99
2019-03-18T08:28:15.894Z,36.19
2019-03-18T08:29:16.892Z,35.68
2019-03-18T08:30:15.885Z,36.39
2019-03-18T08:31:15.857Z,35.99
2019-03-18T08:32:15.853Z,36.38
2019-03-18T08:33:15.849Z,36.59
2019-03-18T08:34:15.857Z,36.38
2019-03-18T08:35:15.816Z,36.38
2019-03-18T08:36:15.815Z,36.68
2019-03-18T08:37:15.794Z,36.68
2019-03-18T08:38:15.783Z,36.57
2019-03-18T08:39:15.782Z,35.55
2019-03-18T08:40:15.772Z,35.76
2019-03-18T08:41:15.743Z,35.76
2019-03-18T08:42:15.758Z,35.76
2019-03-18T08:43:15.740Z,35.96
2019-03-18T08:44:16.042Z,35.76
2019-03-18T08:45:15.708Z,36.06
2019-03-18T08:46:34.290Z,35.76
2019-03-18T09:31:36.421Z,37.23
2019-03-18T09:32:36.387Z,37.23
2019-03-18T09:33:36.426Z,37.12
2019-03-18T09:34:36.379Z,37.04
2019-03-18T09:35:36.448Z,36.64
2019-03-18T09:36:36.331Z,37.14
2019-03-18T09:37:36.391Z,36.74
2019-03-18T09:38:36.314Z,36.66
2019-03-18T09:39:36.302Z,36.74
2019-03-18T09:40:36.287Z,36.94
2019-03-18T09:41:36.281Z,37.06
2019-03-18T09:42:36.273Z,36.54
2019-03-18T09:43:36.256Z,36.76
2019-03-18T09:44:36.332Z,36.66
2019-03-18T09:45:36.229Z,36.96
2019-03-18T09:46:36.243Z,36.86
2019-03-18T09:47:36.221Z,36.86
2019-03-18T09:48:36.203Z,36.76
2019-03-18T09:49:36.199Z,36.74
2019-03-18T09:50:36.183Z,37.14
2019-03-18T09:51:36.168Z,36.64
2019-03-18T09:52:36.225Z,36.94
2019-03-18T09:53:37.681Z,37.14
2019-03-18T09:54:36.125Z,37.24
2019-03-18T09:55:36.140Z,37.04
2019-03-18T09:56:36.138Z,36.54
2019-03-18T09:57:36.094Z,36.54
2019-03-18T09:58:36.084Z,36.54
2019-03-18T09:59:36.882Z,36.44
2019-03-18T10:00:36.085Z,36.44
2019-03-18T10:01:36.072Z,36.54
2019-03-18T10:02:36.039Z,36.34
2019-03-18T10:03:36.058Z,36.76
2019-03-18T10:04:36.513Z,37.16
2019-03-18T10:05:36.008Z,36.36
2019-03-18T10:06:35.999Z,36.46
2019-03-18T10:07:35.984Z,36.66
2019-03-18T10:08:36.232Z,36.46
2019-03-18T10:11:36.496Z,35.94
2019-03-18T10:12:36.018Z,36.54
2019-03-18T10:13:36.107Z,36.54
2019-03-18T10:14:35.909Z,36.34
2019-03-18T10:15:35.884Z,36.24
2019-03-18T10:16:35.887Z,36.54
2019-03-18T10:17:36.040Z,36.14
2019-03-18T10:18:35.863Z,36.36
2019-03-18T10:19:35.867Z,36.44
2019-03-18T10:20:36.137Z,36.14
2019-03-18T10:21:35.834Z,36.14
2019-03-18T10:22:36.158Z,35.44
2019-03-18T10:23:35.799Z,36.04
2019-03-18T10:24:35.788Z,35.64
2019-03-18T10:25:35.929Z,35.64
2019-03-18T10:26:35.787Z,35.74
2019-03-18T10:27:37.718Z,35.94
2019-03-18T10:28:35.864Z,35.94
2019-03-18T10:29:35.735Z,35.94
2019-03-18T10:30:35.834Z,36.04
2019-03-18T10:31:35.808Z,35.74
2019-03-18T10:32:35.702Z,36.04
2019-03-18T10:33:35.705Z,35.84
2019-03-18T10:34:35.698Z,36.04
2019-03-18T10:35:35.678Z,35.84
2019-03-18T10:36:35.644Z,35.94
2019-03-18T10:37:35.654Z,35.84
2019-03-18T10:38:35.689Z,36.14
2019-03-18T10:39:35.650Z,36.64
2019-03-18T10:40:35.740Z,36.04
2019-03-18T10:41:35.599Z,35.54
2019-03-18T10:42:35.618Z,35.94
2019-03-18T10:43:35.579Z,35.94
2019-03-18T10:44:35.692Z,35.84
2019-03-18T10:45:35.541Z,35.64
2019-03-18T10:46:35.637Z,35.74
2019-03-18T10:47:35.560Z,35.64
2019-03-18T10:48:35.516Z,36.04
2019-03-18T10:49:45.639Z,35.94
2019-03-18T15:14:51.453Z,36.02
2019-03-18T15:15:51.435Z,35.93
2019-03-18T15:16:51.618Z,35.62
2019-03-18T15:17:51.395Z,36.02
2019-03-18T15:18:51.404Z,35.82
2019-03-18T15:19:51.381Z,36.02
2019-03-18T15:20:51.383Z,36.12
2019-03-18T15:21:58.290Z,36.02
2019-03-18T15:23:16.414Z,36.12
2019-03-18T15:24:17.391Z,36.12
2019-03-18T15:25:16.584Z,36.12
2019-03-18T15:26:16.578Z,36.52
2019-03-18T15:27:16.418Z,36.52
2019-03-18T15:28:16.612Z,36.02
2019-03-18T15:29:16.356Z,36.12
2019-03-18T15:30:16.330Z,36.32
2019-03-18T15:31:16.329Z,36.32
2019-03-18T15:32:16.321Z,36.23
2019-03-18T15:33:16.303Z,36.04
2019-03-18T15:34:16.496Z,36.84
2019-03-18T15:35:16.489Z,36.14
2019-03-18T15:36:16.478Z,36.04
2019-03-18T15:37:16.310Z,35.94
2019-03-18T15:38:16.304Z,36.24
2019-03-18T15:39:16.236Z,35.94
2019-03-18T15:40:16.263Z,36.64
2019-03-18T15:41:16.292Z,36.14
2019-03-18T15:42:16.211Z,36.64
2019-03-18T15:43:16.199Z,36.04
2019-03-18T15:44:16.474Z,36.74
2019-03-18T15:45:16.152Z,36.84
2019-03-18T15:46:16.141Z,36.54
2019-03-18T15:47:16.152Z,36.44
2019-03-18T15:48:16.133Z,36.56
2019-03-18T15:49:16.101Z,36.54
2019-03-18T15:50:16.099Z,36.76
2019-03-18T15:51:16.089Z,37.16
2019-03-18T15:52:16.077Z,37.36
2019-03-18T15:53:16.080Z,36.96
2019-03-18T15:54:16.077Z,36.96
2019-03-18T15:55:16.253Z,37.06
2019-03-18T15:56:16.233Z,36.96
2019-03-18T15:57:16.085Z,37.06
2019-03-18T15:58:16.002Z,36.66
2019-03-18T15:59:15.999Z,36.96
2019-03-18T16:00:16.018Z,37.16
2019-03-18T16:01:15.979Z,36.76
2019-03-18T16:02:15.986Z,36.76
2019-03-18T16:03:15.969Z,36.96
2019-03-18T16:04:15.970Z,36.76
2019-03-18T16:05:15.925Z,36.96
2019-03-18T16:06:15.922Z,36.66
2019-03-18T16:07:15.898Z,36.66
2019-03-18T16:08:15.918Z,36.46
2019-03-18T16:09:15.905Z,36.56
2019-03-18T16:10:15.887Z,36.88
2019-03-18T16:11:15.864Z,36.96
2019-03-18T16:12:15.852Z,36.66
2019-03-18T16:13:16.044Z,36.96
2019-03-18T16:14:15.840Z,37.06
2019-03-18T16:15:15.806Z,36.98
2019-03-18T16:16:15.797Z,36.56
2019-03-18T16:17:15.817Z,36.46
2019-03-18T16:18:15.785Z,36.86
2019-03-18T16:19:15.785Z,37.06
2019-03-18T16:20:15.761Z,36.57
2019-03-18T16:21:15.749Z,36.36
2019-03-18T16:22:23.504Z,37.06
2019-03-18T16:23:37.494Z,36.88
2019-03-18T16:24:37.688Z,37.76
2019-03-18T16:25:37.474Z,37.76
2019-03-18T16:26:37.488Z,37.38
2019-03-18T16:27:37.535Z,37.48
2019-03-18T16:28:37.439Z,37.48
2019-03-18T16:29:37.431Z,37.48
2019-03-18T16:30:37.416Z,37.58
2019-03-18T16:31:37.501Z,37.48
2019-03-18T16:32:37.419Z,37.48
2019-03-18T16:33:37.389Z,37.58
2019-03-18T16:34:37.386Z,37.68
2019-03-18T16:35:37.361Z,37.28
2019-03-18T16:36:37.342Z,37.28
2019-03-18T16:37:37.342Z,37.38
2019-03-18T16:38:37.583Z,37.28
2019-03-18T16:39:37.309Z,37.08
2019-03-18T16:40:37.303Z,37.48
2019-03-18T16:41:37.298Z,37.78
2019-03-18T16:42:37.292Z,37.58
2019-03-18T16:43:37.276Z,37.48
2019-03-18T16:44:37.249Z,37.58
2019-03-18T16:45:37.249Z,37.58
2019-03-18T16:46:37.286Z,37.48
2019-03-18T16:47:37.241Z,37.68
2019-03-18T16:48:37.264Z,37.88
2019-03-18T16:49:37.210Z,37.88
2019-03-18T16:50:37.191Z,37.58
2019-03-18T16:51:37.459Z,37.58
2019-03-18T16:52:37.170Z,37.68
2019-03-18T16:53:37.150Z,37.68
2019-03-18T16:54:37.137Z,37.58
2019-03-18T16:55:37.126Z,37.79
2019-03-18T16:56:37.145Z,37.68
2019-03-18T16:57:37.109Z,37.58
2019-03-18T16:58:37.099Z,37.78
2019-03-18T16:59:37.094Z,37.38
2019-03-18T17:00:37.067Z,37.38
2019-03-18T17:01:37.067Z,37.78
2019-03-18T17:02:37.070Z,37.60
2019-03-18T17:03:37.048Z,37.58
2019-03-18T17:04:37.022Z,37.60
2019-03-18T17:05:37.035Z,37.68
2019-03-18T17:06:38.067Z,37.58
2019-03-18T17:07:37.021Z,37.48
2019-03-18T17:08:37.012Z,37.58
2019-03-18T17:09:36.984Z,37.70
2019-03-18T17:10:36.963Z,37.70
2019-03-18T17:11:36.965Z,37.70
2019-03-18T17:12:36.931Z,37.98
2019-03-18T17:13:36.922Z,37.90
2019-03-18T17:14:36.924Z,38.38
2019-03-18T17:15:36.919Z,37.88
2019-03-18T17:16:36.893Z,37.79
2019-03-18T17:17:36.885Z,37.78
2019-03-18T17:18:36.879Z,37.48
2019-03-18T17:19:37.058Z,37.38
2019-03-18T17:20:36.844Z,37.70
2019-03-18T17:21:37.066Z,37.79
2019-03-18T17:22:48.006Z,38.40
2019-03-18T17:23:58.668Z,37.90
2019-03-18T17:24:58.841Z,39.00
2019-03-18T17:25:58.611Z,39.00
2019-03-18T17:26:58.608Z,38.90
2019-03-18T17:27:58.607Z,38.80
2019-03-18T17:28:58.584Z,38.80
2019-03-18T17:29:58.569Z,38.50
2019-03-18T17:30:58.571Z,38.80
2019-03-18T17:31:58.755Z,38.60
2019-03-18T17:32:58.538Z,38.20
2019-03-18T17:33:58.731Z,38.30
2019-03-18T17:34:58.599Z,38.70
2019-03-18T17:35:58.496Z,38.40
2019-03-18T17:36:58.711Z,38.30
2019-03-18T17:37:58.494Z,38.70
2019-03-18T17:38:58.666Z,38.10
2019-03-18T17:39:58.452Z,38.40
2019-03-18T17:40:58.645Z,38.70
2019-03-18T17:41:58.428Z,38.78
2019-03-18T17:42:58.422Z,38.28
2019-03-18T17:43:58.615Z,38.80
2019-03-18T17:44:58.394Z,38.50
2019-03-18T17:45:58.447Z,38.50
2019-03-18T17:46:58.390Z,38.48
2019-03-18T17:47:58.363Z,38.50
2019-03-18T17:48:58.361Z,38.50
2019-03-18T17:49:58.354Z,38.38
2019-03-18T17:50:58.326Z,38.48
2019-03-18T17:51:58.318Z,38.98
2019-03-18T17:53:02.859Z,38.98
2019-03-18T17:53:58.559Z,38.18
2019-03-18T17:54:58.282Z,38.18
2019-03-18T17:55:58.270Z,38.18
2019-03-18T17:57:07.255Z,38.78
2019-03-18T17:58:20.423Z,38.58
2019-03-18T17:59:20.434Z,37.88
2019-03-18T18:00:20.615Z,37.98
2019-03-18T18:01:20.383Z,38.18
2019-03-18T18:02:20.377Z,38.18
2019-03-18T18:03:20.364Z,37.48
2019-03-18T18:04:20.364Z,37.68
2019-03-18T18:05:20.543Z,37.68
2019-03-18T18:06:20.335Z,38.48
2019-03-18T18:07:20.317Z,37.88
2019-03-18T18:08:20.322Z,37.78
2019-03-18T18:09:20.301Z,37.78
2019-03-18T18:10:20.278Z,37.88
2019-03-18T18:11:20.481Z,37.68
